createdAt,value
2018-07-11T00:01:38.153Z,94957.94
2018-07-11T00:04:07.006Z,94956.39
2018-07-11T00:06:36.498Z,94958.83
2018-07-11T00:09:06.097Z,94954.81
2018-07-11T00:11:34.985Z,94956.19
2018-07-11T00:14:03.844Z,94958.14
2018-07-11T00:16:34.194Z,94955.94
2018-07-11T00:19:03.024Z,94960.05
2018-07-11T00:21:31.867Z,94953.46
2018-07-11T00:24:01.107Z,94952.80
2018-07-11T00:26:29.946Z,94952.25
2018-07-11T00:28:58.796Z,94953.69
2018-07-11T00:31:28.312Z,94945.45
2018-07-11T00:33:57.963Z,94946.55
2018-07-11T00:36:26.950Z,94941.64
2018-07-11T00:38:56.301Z,94942.42
2018-07-11T00:41:25.419Z,94944.44
2018-07-11T00:43:54.436Z,94938.55
2018-07-11T00:46:34.496Z,94942.11
2018-07-11T00:49:11.267Z,94941.41
2018-07-11T00:51:48.199Z,94946.76
2018-07-11T00:54:22.434Z,94943.88
2018-07-11T00:57:00.316Z,94943.63
2018-07-11T00:59:36.206Z,94937.86
2018-07-11T01:19:26.147Z,94933.59
2018-07-11T01:22:05.809Z,94936.84
2018-07-11T01:24:40.582Z,94928.38
2018-07-11T01:27:11.149Z,94926.70
2018-07-11T01:29:41.587Z,94934.93
2018-07-11T01:32:17.009Z,94937.60
2018-07-11T01:34:46.403Z,94938.39
2018-07-11T01:37:15.435Z,94940.27
2018-07-11T01:39:44.602Z,94936.72
2018-07-11T01:42:13.566Z,94939.18
2018-07-11T02:01:58.886Z,94934.72
2018-07-11T02:21:44.269Z,94945.41
2018-07-11T02:24:13.360Z,94941.61
2018-07-11T02:26:42.451Z,94947.20
2018-07-11T02:29:12.778Z,94951.42
2018-07-11T02:31:42.051Z,94952.55
2018-07-11T02:34:12.234Z,94954.67
2018-07-11T02:36:42.337Z,94939.97
2018-07-11T02:39:13.473Z,94937.30
2018-07-11T02:41:42.741Z,94944.28
2018-07-11T02:44:12.153Z,94942.95
2018-07-11T02:46:46.897Z,94946.75
2018-07-11T02:49:16.143Z,94945.07
2018-07-11T02:51:45.134Z,94945.86
2018-07-11T02:54:19.245Z,94945.86
2018-07-11T02:56:48.162Z,94942.19
2018-07-11T02:59:17.110Z,94937.94
2018-07-11T03:01:48.401Z,94941.40
2018-07-11T03:04:18.270Z,94948.29
2018-07-11T03:06:48.045Z,94944.62
2018-07-11T03:09:17.179Z,94953.52
2018-07-11T03:11:46.239Z,94955.43
2018-07-11T03:14:15.277Z,94953.85
2018-07-11T03:16:44.741Z,94962.75
2018-07-11T03:36:30.211Z,94959.17
2018-07-11T03:39:00.143Z,94959.17
2018-07-11T03:41:30.090Z,94963.39
2018-07-11T03:43:59.201Z,94968.73
2018-07-11T03:46:29.774Z,94970.63
2018-07-11T03:48:58.573Z,94970.98
2018-07-11T04:08:43.685Z,94987.61
2018-07-11T04:11:14.968Z,94992.20
2018-07-11T04:13:44.407Z,94985.71
2018-07-11T04:16:14.470Z,94992.05
2018-07-11T04:18:43.524Z,94993.76
2018-07-11T04:21:12.866Z,94994.54
2018-07-11T04:23:41.639Z,95014.59
2018-07-11T04:26:10.940Z,95006.79
2018-07-11T04:28:40.502Z,95012.58
2018-07-11T04:31:10.048Z,95011.34
2018-07-11T04:50:56.185Z,95008.34
2018-07-11T04:53:26.629Z,95014.70
2018-07-11T05:13:12.277Z,95008.96
2018-07-11T05:15:41.479Z,95009.20
2018-07-11T05:18:10.552Z,95007.86
2018-07-11T05:20:40.152Z,95014.66
2018-07-11T05:23:09.026Z,95013.58
2018-07-11T05:25:37.989Z,95010.23
2018-07-11T05:28:07.090Z,95013.36
2018-07-11T05:30:36.081Z,95010.80
2018-07-11T05:33:05.187Z,95015.60
2018-07-11T05:35:34.721Z,95017.94
2018-07-11T05:38:03.879Z,95018.15
2018-07-11T05:40:32.850Z,95017.81
2018-07-11T05:43:01.754Z,95012.71
2018-07-11T05:45:30.756Z,95016.93
2018-07-11T06:05:17.039Z,95015.84
2018-07-11T06:25:03.096Z,94996.57
2018-07-11T06:44:48.727Z,94994.35
2018-07-11T06:47:17.782Z,94989.79
2018-07-11T07:07:03.973Z,94995.12
2018-07-11T07:09:33.050Z,94994.23
2018-07-11T07:12:02.010Z,94984.42
2018-07-11T07:14:31.035Z,94982.20
2018-07-11T07:16:59.890Z,94983.55
2018-07-11T07:19:28.855Z,94983.33
2018-07-11T07:39:13.655Z,94976.65
2018-07-11T07:41:42.973Z,94977.29
2018-07-11T07:44:13.065Z,94968.17
2018-07-11T07:46:46.412Z,94968.17
2018-07-11T07:49:15.478Z,94966.62
2018-07-11T07:51:44.373Z,94973.75
2018-07-11T07:54:13.790Z,94973.96
2018-07-11T07:56:42.780Z,94973.41
2018-07-11T07:59:11.767Z,94970.19
2018-07-11T09:00:03.197Z,94937.92
2018-07-11T09:03:56.787Z,94926.89
2018-07-11T09:08:39.525Z,94927.09
2018-07-11T09:12:34.420Z,94927.89
2018-07-11T09:15:12.497Z,94931.80
2018-07-11T09:17:58.370Z,94930.13
2018-07-11T09:21:37.316Z,94927.89
2018-07-11T09:24:17.644Z,94922.76
2018-07-11T09:26:46.590Z,94919.53
2018-07-11T09:29:15.547Z,94920.53
2018-07-11T09:31:44.834Z,94922.97
2018-07-11T09:34:13.615Z,94923.86
2018-07-11T09:36:42.673Z,94918.52
2018-07-11T09:39:11.977Z,94917.75
2018-07-11T09:41:41.154Z,94916.76
2018-07-11T09:44:17.073Z,94917.52
2018-07-11T09:46:46.400Z,94922.42
2018-07-11T09:49:15.488Z,94925.09
2018-07-11T09:51:44.629Z,94921.66
2018-07-11T10:11:30.114Z,94921.21
2018-07-11T10:31:15.980Z,94921.31
2018-07-11T10:33:44.932Z,94904.17
2018-07-11T10:36:13.810Z,94913.53
2018-07-11T10:38:42.856Z,94906.84
2018-07-11T10:41:12.146Z,94900.47
2018-07-11T10:43:41.579Z,94902.25
2018-07-11T11:03:29.364Z,94898.25
2018-07-11T11:05:58.519Z,94875.85
2018-07-11T11:08:28.542Z,94888.99
2018-07-11T11:10:57.803Z,94882.86
2018-07-11T11:13:27.207Z,94886.42
2018-07-11T11:15:56.790Z,94886.97
2018-07-11T11:18:26.154Z,94888.20
2018-07-11T11:38:11.570Z,94875.27
2018-07-11T11:57:57.185Z,94856.55
2018-07-11T12:00:26.141Z,94865.02
2018-07-11T12:02:55.379Z,94857.98
2018-07-11T12:05:24.566Z,94857.41
2018-07-11T12:07:53.622Z,94852.06
2018-07-11T12:10:22.836Z,94853.63
2018-07-11T12:12:51.886Z,94844.27
2018-07-11T12:15:20.901Z,94838.02
2018-07-11T12:17:49.649Z,94843.92
2018-07-11T12:20:18.950Z,94839.56
2018-07-11T12:22:48.563Z,94832.77
2018-07-11T12:25:17.767Z,94837.33
2018-07-11T12:27:47.198Z,94836.00
2018-07-11T12:47:37.391Z,94811.72
2018-07-11T12:50:06.690Z,94815.94
2018-07-11T12:52:35.523Z,94810.38
2018-07-11T12:55:04.617Z,94811.17
2018-07-11T12:57:33.823Z,94814.39
2018-07-11T13:00:02.969Z,94811.52
2018-07-11T13:02:32.477Z,94811.92
2018-07-11T13:22:18.381Z,94805.14
2018-07-11T13:24:47.427Z,94812.62
2018-07-11T13:44:32.560Z,94804.25
2018-07-11T13:47:05.814Z,94804.34
2018-07-11T13:49:34.865Z,94810.69
2018-07-11T13:52:04.143Z,94814.59
2018-07-11T13:54:33.157Z,94810.37
2018-07-11T13:57:02.375Z,94809.24
2018-07-11T13:59:31.459Z,94807.80
2018-07-11T14:02:00.679Z,94803.78
2018-07-11T14:04:29.874Z,94805.12
2018-07-11T14:06:58.913Z,94805.88
2018-07-11T14:09:28.098Z,94812.80
